Time;durP1;ratioP1;P1;durP2;ratioP2;P2;SDS_P1;SDS_P2;PMS_P1;PMS_P2;Temp;Humidity;BMP_temperature;BMP_pressure;BME280_temperature;BME280_humidity;BME280_pressure;Samples;Min_cycle;Max_cycle;Signal;HPM_P1;HPM_P2
2023/04/19 00:00:27;;;;;;;35.25;8.18;;;;;;;;;;1029941;28;20022;-76
2023/04/19 00:01:00;;;;;;;11.48;7.70;;;;;;;;;;1030326;28;20027;-76
2023/04/19 00:01:31;;;;;;;10.45;7.25;;;;;;;;;;1025655;28;20026;-76
2023/04/19 00:02:01;;;;;;;21.02;10.15;;;;;;;;;;1026176;28;20065;-76
2023/04/19 00:02:32;;;;;;;13.35;8.38;;;;;;;;;;1025802;28;20515;-76
2023/04/19 00:03:04;;;;;;;17.33;9.13;;;;;;;;;;1026348;28;20113;-76
2023/04/19 00:03:35;;;;;;;14.45;6.60;;;;;;;;;;1025626;28;20022;-77
2023/04/19 00:04:06;;;;;;;18.73;5.50;;;;;;;;;;1025789;28;20034;-77
2023/04/19 00:04:37;;;;;;;15.70;6.32;;;;;;;;;;1026554;28;20519;-76
2023/04/19 00:05:08;;;;;;;7.43;5.78;;;;;;;;;;1025544;28;20117;-76
2023/04/19 00:05:38;;;;;;;11.18;7.03;;;;;;;;;;1024300;28;20442;-76
2023/04/19 00:06:09;;;;;;;12.23;8.10;;;;;;;;;;1026553;28;20023;-76
2023/04/19 00:06:40;;;;;;;10.70;7.22;;;;;;;;;;1025273;28;20023;-76
2023/04/19 00:07:12;;;;;;;17.83;8.30;;;;;;;;;;1026016;28;20043;-76
2023/04/19 00:07:42;;;;;;;15.25;6.80;;;;;;;;;;1028809;28;20037;-76
2023/04/19 00:08:13;;;;;;;17.40;9.40;;;;;;;;;;1029865;28;20054;-77
2023/04/19 00:08:43;;;;;;;17.17;8.13;;;;;;;;;;1030727;28;20030;-76
2023/04/19 00:09:14;;;;;;;32.63;11.07;;;;;;;;;;1029885;28;20026;-77
2023/04/19 00:09:44;;;;;;;20.20;6.80;;;;;;;;;;1025142;28;20023;-77
2023/04/19 00:10:15;;;;;;;13.10;7.75;;;;;;;;;;1025515;28;20031;-77
2023/04/19 00:10:45;;;;;;;25.90;5.68;;;;;;;;;;1023692;28;20065;-76
2023/04/19 00:11:16;;;;;;;8.23;6.00;;;;;;;;;;1023209;29;20034;-77
2023/04/19 00:11:46;;;;;;;15.15;7.25;;;;;;;;;;1022670;28;20026;-77
2023/04/19 00:12:17;;;;;;;30.33;11.02;;;;;;;;;;1026056;28;20023;-77
2023/04/19 00:12:47;;;;;;;12.18;6.90;;;;;;;;;;1021131;28;20586;-76
2023/04/19 00:13:18;;;;;;;8.48;6.35;;;;;;;;;;1025398;28;20055;-76
2023/04/19 00:13:48;;;;;;;13.27;8.20;;;;;;;;;;1025818;28;20049;-76
2023/04/19 00:14:19;;;;;;;18.08;9.10;;;;;;;;;;1025963;28;20042;-76
2023/04/19 00:14:49;;;;;;;16.95;6.95;;;;;;;;;;1030152;28;20026;-77
2023/04/19 00:15:20;;;;;;;11.70;7.60;;;;;;;;;;1028691;28;20382;-77
2023/04/19 00:15:50;;;;;;;8.65;7.40;;;;;;;;;;1029685;28;20498;-77
2023/04/19 00:16:20;;;;;;;12.13;7.25;;;;;;;;;;1029922;28;20442;-77
2023/04/19 00:16:51;;;;;;;8.70;5.47;;;;;;;;;;1030206;28;20046;-77
2023/04/19 00:17:21;;;;;;;13.75;7.65;;;;;;;;;;1025635;28;20031;-77
2023/04/19 00:17:52;;;;;;;20.90;8.75;;;;;;;;;;1021757;29;20555;-76
2023/04/19 00:18:22;;;;;;;9.93;5.25;;;;;;;;;;1021302;29;20030;-76
2023/04/19 00:18:53;;;;;;;13.23;6.53;;;;;;;;;;1021604;28;20504;-77
2023/04/19 00:19:23;;;;;;;14.57;6.30;;;;;;;;;;1025529;28;20023;-77
2023/04/19 00:19:54;;;;;;;9.52;5.15;;;;;;;;;;1025865;28;20547;-76
2023/04/19 00:20:24;;;;;;;15.75;7.15;;;;;;;;;;1025751;28;20134;-76
2023/04/19 00:20:55;;;;;;;18.90;7.55;;;;;;;;;;1025717;28;20038;-77
2023/04/19 00:21:26;;;;;;;8.18;5.18;;;;;;;;;;1025201;28;20066;-76
2023/04/19 00:21:56;;;;;;;19.25;8.30;;;;;;;;;;1021412;29;20054;-77
2023/04/19 00:22:27;;;;;;;13.15;7.43;;;;;;;;;;1021606;29;20075;-77
2023/04/19 00:22:58;;;;;;;17.95;6.35;;;;;;;;;;1022485;28;20063;-76
2023/04/19 00:23:28;;;;;;;20.85;6.18;;;;;;;;;;1025207;28;20050;-77
2023/04/19 00:24:01;;;;;;;8.35;7.03;;;;;;;;;;1030130;28;20026;-77
2023/04/19 00:24:31;;;;;;;9.45;5.82;;;;;;;;;;1028713;28;20022;-77
2023/04/19 00:25:02;;;;;;;14.43;6.40;;;;;;;;;;1029828;28;20145;-77
2023/04/19 00:25:33;;;;;;;10.20;8.05;;;;;;;;;;1029495;28;20030;-77
2023/04/19 00:26:04;;;;;;;10.90;6.32;;;;;;;;;;1029157;28;20443;-76
2023/04/19 00:26:34;;;;;;;20.02;5.90;;;;;;;;;;1029507;28;20034;-77
2023/04/19 00:27:04;;;;;;;10.95;6.82;;;;;;;;;;1024939;28;20054;-76
2023/04/19 00:27:35;;;;;;;9.77;6.00;;;;;;;;;;1025119;28;20027;-76
2023/04/19 00:28:05;;;;;;;15.82;7.55;;;;;;;;;;1026122;28;20027;-77
2023/04/19 00:28:36;;;;;;;16.15;8.07;;;;;;;;;;1025493;28;20030;-76
2023/04/19 00:29:07;;;;;;;17.85;6.97;;;;;;;;;;1025335;28;20019;-76
2023/04/19 00:29:37;;;;;;;17.90;6.93;;;;;;;;;;1025199;28;20035;-76
2023/04/19 00:30:08;;;;;;;10.68;4.93;;;;;;;;;;1025745;28;20483;-76
2023/04/19 00:30:38;;;;;;;17.25;5.43;;;;;;;;;;1029931;28;20031;-76
2023/04/19 00:31:09;;;;;;;7.30;4.13;;;;;;;;;;1030184;28;20386;-76
2023/04/19 00:31:39;;;;;;;16.95;7.72;;;;;;;;;;1028824;28;20031;-77
2023/04/19 00:32:10;;;;;;;16.10;7.10;;;;;;;;;;1025840;28;20077;-77
2023/04/19 00:32:40;;;;;;;9.20;4.78;;;;;;;;;;1025152;28;20058;-77
2023/04/19 00:33:14;;;;;;;18.67;6.85;;;;;;;;;;1024832;28;20022;-76
2023/04/19 00:33:44;;;;;;;5.47;4.47;;;;;;;;;;1023892;28;20050;-76
2023/04/19 00:34:15;;;;;;;16.75;8.50;;;;;;;;;;1025498;28;20555;-76
2023/04/19 00:34:46;;;;;;;11.50;6.43;;;;;;;;;;1025814;28;20079;-77
2023/04/19 00:35:16;;;;;;;18.67;8.02;;;;;;;;;;1023483;28;20467;-77
2023/04/19 00:35:47;;;;;;;18.50;7.15;;;;;;;;;;1023524;28;20019;-77
2023/04/19 00:36:17;;;;;;;18.92;6.53;;;;;;;;;;1026308;28;20030;-76
2023/04/19 00:36:47;;;;;;;16.55;8.13;;;;;;;;;;1025607;28;20054;-76
2023/04/19 00:37:18;;;;;;;11.40;5.50;;;;;;;;;;1029616;28;20026;-76
2023/04/19 00:37:48;;;;;;;13.23;7.78;;;;;;;;;;1029568;28;20371;-76
2023/04/19 00:38:19;;;;;;;10.25;7.05;;;;;;;;;;1030841;28;20387;-76
2023/04/19 00:38:49;;;;;;;12.35;5.90;;;;;;;;;;1025542;28;20051;-77
2023/04/19 00:39:20;;;;;;;13.25;6.90;;;;;;;;;;1025177;28;20023;-76
2023/04/19 00:39:50;;;;;;;23.45;9.02;;;;;;;;;;1025565;28;20068;-76
2023/04/19 00:40:21;;;;;;;18.58;6.03;;;;;;;;;;1025782;28;20031;-76
2023/04/19 00:40:51;;;;;;;26.42;8.27;;;;;;;;;;1025868;28;20033;-76
2023/04/19 00:41:22;;;;;;;8.35;6.00;;;;;;;;;;1025374;28;20038;-77
2023/04/19 00:41:52;;;;;;;12.15;6.13;;;;;;;;;;1024984;28;20023;-76
2023/04/19 00:42:23;;;;;;;15.82;8.18;;;;;;;;;;1025245;28;20089;-76
2023/04/19 00:42:53;;;;;;;21.60;7.85;;;;;;;;;;1025434;28;20499;-77
2023/04/19 00:43:24;;;;;;;12.10;7.68;;;;;;;;;;1025427;28;20102;-77
2023/04/19 00:43:54;;;;;;;6.95;4.65;;;;;;;;;;1029767;28;20034;-77
2023/04/19 00:44:25;;;;;;;15.57;5.97;;;;;;;;;;1028920;28;20027;-77
2023/04/19 00:44:55;;;;;;;10.55;7.40;;;;;;;;;;1029261;28;20019;-76
2023/04/19 00:45:25;;;;;;;23.38;6.82;;;;;;;;;;1029868;28;20062;-76
2023/04/19 00:45:56;;;;;;;16.08;8.75;;;;;;;;;;1030220;28;20153;-76
2023/04/19 00:46:26;;;;;;;14.07;6.13;;;;;;;;;;1028483;28;20030;-76
2023/04/19 00:46:58;;;;;;;13.05;8.10;;;;;;;;;;1029685;28;20046;-76
2023/04/19 00:47:29;;;;;;;18.88;9.10;;;;;;;;;;1030519;28;20125;-77
2023/04/19 00:48:00;;;;;;;8.93;5.28;;;;;;;;;;1025708;28;20422;-77
2023/04/19 00:48:31;;;;;;;13.98;8.00;;;;;;;;;;1025605;28;20031;-77
2023/04/19 00:49:01;;;;;;;16.23;7.13;;;;;;;;;;1024733;28;20027;-76
2023/04/19 00:49:32;;;;;;;18.52;10.77;;;;;;;;;;1025303;28;20492;-76
2023/04/19 00:50:03;;;;;;;13.93;7.18;;;;;;;;;;1025896;28;20039;-76
2023/04/19 00:50:34;;;;;;;25.55;9.88;;;;;;;;;;1025464;28;20081;-76
2023/04/19 00:51:05;;;;;;;22.85;7.97;;;;;;;;;;1021787;29;20023;-77
2023/04/19 00:51:36;;;;;;;19.48;7.97;;;;;;;;;;1020967;29;20609;-76
2023/04/19 00:52:07;;;;;;;23.20;10.82;;;;;;;;;;1021444;29;20031;-77
2023/04/19 00:52:38;;;;;;;43.67;16.45;;;;;;;;;;1018210;29;20028;-76
2023/04/19 00:53:09;;;;;;;54.53;20.85;;;;;;;;;;1022900;28;20125;-76
2023/04/19 00:53:40;;;;;;;57.90;21.90;;;;;;;;;;1025244;28;20308;-77
2023/04/19 00:54:10;;;;;;;53.60;26.10;;;;;;;;;;1027473;28;20104;-76
2023/04/19 00:54:41;;;;;;;44.05;20.60;;;;;;;;;;1026952;28;20027;-77
2023/04/19 00:55:12;;;;;;;24.00;11.23;;;;;;;;;;1025313;28;20054;-77
2023/04/19 00:55:42;;;;;;;21.50;8.90;;;;;;;;;;1025982;28;20110;-77
2023/04/19 00:56:13;;;;;;;10.70;5.95;;;;;;;;;;1025873;28;20490;-76
2023/04/19 00:56:44;;;;;;;10.02;7.07;;;;;;;;;;1029313;28;20019;-77
2023/04/19 00:57:15;;;;;;;10.60;5.72;;;;;;;;;;1029929;28;20037;-76
2023/04/19 00:57:46;;;;;;;14.77;5.93;;;;;;;;;;1025492;28;20050;-76
2023/04/19 00:58:16;;;;;;;10.60;5.35;;;;;;;;;;1025772;28;20453;-76
2023/04/19 00:58:47;;;;;;;11.95;5.32;;;;;;;;;;1025088;28;20026;-76
2023/04/19 00:59:18;;;;;;;24.40;8.57;;;;;;;;;;1025405;28;20109;-77
2023/04/19 00:59:49;;;;;;;15.90;8.70;;;;;;;;;;1025374;28;20023;-76
2023/04/19 01:00:20;;;;;;;18.42;9.43;;;;;;;;;;1024984;28;20065;-76
2023/04/19 01:00:51;;;;;;;15.15;10.27;;;;;;;;;;1025227;28;20025;-76
2023/04/19 01:01:21;;;;;;;20.80;10.63;;;;;;;;;;1025484;28;20027;-77
2023/04/19 01:01:52;;;;;;;11.90;5.20;;;;;;;;;;1024286;28;20086;-76
2023/04/19 01:02:22;;;;;;;24.40;8.95;;;;;;;;;;1024976;28;20143;-77
2023/04/19 01:02:54;;;;;;;15.10;6.53;;;;;;;;;;1026514;28;20510;-76
2023/04/19 01:03:27;;;;;;;20.08;8.70;;;;;;;;;;1025556;28;20027;-76
2023/04/19 01:03:59;;;;;;;11.63;5.20;;;;;;;;;;1028949;28;20029;-76
2023/04/19 01:04:30;;;;;;;23.27;8.65;;;;;;;;;;1029293;28;20033;-76
2023/04/19 01:05:00;;;;;;;13.48;7.38;;;;;;;;;;1029715;28;20027;-76
2023/04/19 01:05:31;;;;;;;11.20;6.82;;;;;;;;;;1029246;28;20035;-76
2023/04/19 01:06:01;;;;;;;17.70;8.05;;;;;;;;;;1030097;28;20019;-77
2023/04/19 01:06:33;;;;;;;20.33;8.48;;;;;;;;;;1029799;28;20026;-77
2023/04/19 01:07:03;;;;;;;17.10;8.48;;;;;;;;;;1029141;28;20456;-76
2023/04/19 01:07:34;;;;;;;16.70;6.57;;;;;;;;;;1028372;28;20027;-76
2023/04/19 01:08:05;;;;;;;20.48;9.60;;;;;;;;;;1025118;28;20582;-77
2023/04/19 01:08:35;;;;;;;11.10;6.30;;;;;;;;;;1024883;28;20026;-77
2023/04/19 01:09:06;;;;;;;17.60;7.60;;;;;;;;;;1020321;29;20089;-77
2023/04/19 01:09:40;;;;;;;18.63;8.02;;;;;;;;;;1020935;29;20027;-76
2023/04/19 01:10:11;;;;;;;14.07;6.80;;;;;;;;;;1020923;29;20039;-77
2023/04/19 01:10:41;;;;;;;19.77;6.72;;;;;;;;;;1018354;29;20027;-77
2023/04/19 01:11:12;;;;;;;15.63;7.50;;;;;;;;;;1021927;28;20115;-77
2023/04/19 01:11:42;;;;;;;25.60;9.15;;;;;;;;;;1024941;28;20042;-76
2023/04/19 01:12:13;;;;;;;18.08;10.88;;;;;;;;;;1023589;28;20083;-77
2023/04/19 01:12:43;;;;;;;30.42;14.35;;;;;;;;;;1029363;28;20082;-76
2023/04/19 01:13:14;;;;;;;25.85;13.48;;;;;;;;;;1023140;28;20078;-77
2023/04/19 01:13:44;;;;;;;18.42;13.50;;;;;;;;;;1025454;28;20117;-77
2023/04/19 01:14:15;;;;;;;21.38;14.27;;;;;;;;;;1025553;28;20090;-76
2023/04/19 01:14:46;;;;;;;23.15;14.90;;;;;;;;;;1023587;28;20455;-77
2023/04/19 01:15:16;;;;;;;24.92;13.30;;;;;;;;;;1025256;28;20113;-76
2023/04/19 01:15:47;;;;;;;13.55;10.07;;;;;;;;;;1023138;28;20129;-76
2023/04/19 01:16:17;;;;;;;23.13;11.68;;;;;;;;;;1023315;28;20027;-77
2023/04/19 01:16:49;;;;;;;20.65;11.98;;;;;;;;;;1025505;28;20026;-77
2023/04/19 01:17:19;;;;;;;14.32;10.32;;;;;;;;;;1027807;28;20105;-77
2023/04/19 01:17:50;;;;;;;22.13;10.95;;;;;;;;;;1025031;28;20801;-76
2023/04/19 01:18:23;;;;;;;15.35;11.77;;;;;;;;;;1029021;28;20042;-76
2023/04/19 01:18:53;;;;;;;15.98;11.20;;;;;;;;;;1029040;28;20049;-77
2023/04/19 01:19:24;;;;;;;18.42;10.85;;;;;;;;;;1030716;28;20565;-77
2023/04/19 01:20:02;;;;;;;20.95;8.73;;;;;;;;;;1027739;28;20141;-76
2023/04/19 01:20:33;;;;;;;21.17;7.85;;;;;;;;;;1029618;28;20085;-77
2023/04/19 01:21:03;;;;;;;14.52;8.73;;;;;;;;;;1024146;28;20034;-77
2023/04/19 01:21:37;;;;;;;16.90;7.57;;;;;;;;;;1025386;28;20031;-77
2023/04/19 01:22:08;;;;;;;14.52;6.65;;;;;;;;;;1022820;28;20031;-76
2023/04/19 01:22:39;;;;;;;9.55;6.70;;;;;;;;;;1018490;28;20035;-76
2023/04/19 01:23:12;;;;;;;9.88;6.90;;;;;;;;;;1025197;28;20614;-77
2023/04/19 01:23:43;;;;;;;28.77;4.72;;;;;;;;;;1019340;29;20055;-76
2023/04/19 01:24:13;;;;;;;11.02;6.45;;;;;;;;;;1021113;28;20377;-76
2023/04/19 01:24:44;;;;;;;8.70;5.20;;;;;;;;;;1024941;28;20058;-77
2023/04/19 01:25:14;;;;;;;13.73;5.97;;;;;;;;;;1023794;28;20078;-76
2023/04/19 01:25:46;;;;;;;8.55;3.58;;;;;;;;;;1025109;28;20367;-76
2023/04/19 01:26:18;;;;;;;7.53;4.97;;;;;;;;;;1023996;28;20598;-76
2023/04/19 01:26:48;;;;;;;11.35;9.82;;;;;;;;;;1020927;28;20027;-76
2023/04/19 01:27:19;;;;;;;13.65;6.90;;;;;;;;;;1021768;28;20032;-77
2023/04/19 01:27:49;;;;;;;11.60;5.63;;;;;;;;;;1027964;28;20092;-76
2023/04/19 01:28:20;;;;;;;9.50;5.95;;;;;;;;;;1027640;28;20155;-77
2023/04/19 01:28:50;;;;;;;8.82;5.70;;;;;;;;;;1025213;28;20211;-77
2023/04/19 01:29:21;;;;;;;10.90;7.35;;;;;;;;;;1016217;29;20522;-76
2023/04/19 01:29:51;;;;;;;11.32;4.30;;;;;;;;;;1018378;29;20036;-77
2023/04/19 01:30:22;;;;;;;6.78;5.18;;;;;;;;;;1019204;28;20468;-76
2023/04/19 01:30:53;;;;;;;9.93;5.25;;;;;;;;;;1021041;28;20135;-77
2023/04/19 01:31:24;;;;;;;10.55;5.03;;;;;;;;;;1027255;28;20026;-77
2023/04/19 01:31:54;;;;;;;6.38;4.10;;;;;;;;;;1027035;28;20018;-78
2023/04/19 01:32:25;;;;;;;12.63;5.57;;;;;;;;;;1027886;28;20035;-77
2023/04/19 01:32:56;;;;;;;11.73;5.15;;;;;;;;;;1029668;28;20026;-77
2023/04/19 01:33:26;;;;;;;8.50;6.22;;;;;;;;;;1029060;28;20104;-77
2023/04/19 01:33:57;;;;;;;11.32;6.20;;;;;;;;;;1025109;28;20129;-77
2023/04/19 01:34:27;;;;;;;8.23;5.43;;;;;;;;;;1021308;28;20633;-77
2023/04/19 01:34:58;;;;;;;10.90;4.65;;;;;;;;;;1017034;29;20066;-76
2023/04/19 01:35:28;;;;;;;17.30;6.82;;;;;;;;;;1018429;29;20956;-76
2023/04/19 01:35:59;;;;;;;18.33;4.40;;;;;;;;;;1016456;28;20083;-77
2023/04/19 01:36:29;;;;;;;9.35;7.13;;;;;;;;;;1020465;28;20126;-76
2023/04/19 01:37:00;;;;;;;5.30;4.10;;;;;;;;;;1025961;28;20038;-76
2023/04/19 01:37:34;;;;;;;11.20;5.93;;;;;;;;;;1027984;28;20022;-76
2023/04/19 01:38:04;;;;;;;8.50;5.03;;;;;;;;;;1027164;28;20035;-76
2023/04/19 01:38:35;;;;;;;8.60;4.85;;;;;;;;;;1027107;28;20023;-76
2023/04/19 01:39:05;;;;;;;10.30;4.38;;;;;;;;;;1023910;28;20479;-77
2023/04/19 01:39:35;;;;;;;7.75;5.95;;;;;;;;;;1023468;28;20034;-76
2023/04/19 01:40:07;;;;;;;8.43;4.28;;;;;;;;;;1023540;28;20041;-76
2023/04/19 01:40:37;;;;;;;7.82;5.68;;;;;;;;;;1023138;28;20151;-77
2023/04/19 01:41:08;;;;;;;14.75;6.00;;;;;;;;;;1023284;28;20654;-77
2023/04/19 01:41:38;;;;;;;9.98;6.00;;;;;;;;;;1022571;28;20203;-76
2023/04/19 01:42:09;;;;;;;7.38;5.00;;;;;;;;;;1021143;28;20495;-76
2023/04/19 01:42:40;;;;;;;6.40;4.00;;;;;;;;;;1022053;28;20545;-76
2023/04/19 01:43:12;;;;;;;11.10;6.75;;;;;;;;;;1022651;28;20089;-76
2023/04/19 01:43:42;;;;;;;9.90;5.13;;;;;;;;;;1023862;28;20503;-76
2023/04/19 01:44:12;;;;;;;9.77;6.05;;;;;;;;;;1023300;28;20129;-76
2023/04/19 01:44:43;;;;;;;5.47;4.53;;;;;;;;;;1024120;28;20024;-76
2023/04/19 01:45:15;;;;;;;17.27;5.50;;;;;;;;;;1023436;28;20399;-76
2023/04/19 01:45:45;;;;;;;10.30;4.43;;;;;;;;;;1024456;28;20534;-76
2023/04/19 01:46:16;;;;;;;10.35;5.03;;;;;;;;;;1025205;28;20035;-76
2023/04/19 01:46:46;;;;;;;9.40;6.00;;;;;;;;;;1023568;28;20058;-76
2023/04/19 01:47:17;;;;;;;7.35;5.18;;;;;;;;;;1024488;28;20027;-76
2023/04/19 01:47:47;;;;;;;9.50;6.32;;;;;;;;;;1018721;29;20452;-76
2023/04/19 01:48:19;;;;;;;10.90;5.07;;;;;;;;;;1017558;29;20153;-77
2023/04/19 01:48:50;;;;;;;6.35;4.88;;;;;;;;;;1014594;29;20023;-77
2023/04/19 01:49:20;;;;;;;9.63;5.30;;;;;;;;;;1014716;29;20819;-76
2023/04/19 01:49:51;;;;;;;7.03;4.35;;;;;;;;;;1023253;28;20079;-76
2023/04/19 01:50:21;;;;;;;13.25;5.88;;;;;;;;;;1021011;28;20451;-76
2023/04/19 01:50:52;;;;;;;8.65;4.38;;;;;;;;;;1022317;28;20030;-76
2023/04/19 01:51:22;;;;;;;7.03;4.53;;;;;;;;;;1027191;28;20027;-77
2023/04/19 01:51:53;;;;;;;16.10;4.63;;;;;;;;;;1027880;28;20030;-76
2023/04/19 01:52:23;;;;;;;14.00;7.15;;;;;;;;;;1026796;28;20028;-77
2023/04/19 01:52:54;;;;;;;9.23;5.10;;;;;;;;;;1023435;28;20071;-76
2023/04/19 01:53:24;;;;;;;16.70;5.53;;;;;;;;;;1022195;28;20031;-76
2023/04/19 01:53:56;;;;;;;11.23;5.75;;;;;;;;;;1019917;28;20054;-76
2023/04/19 01:54:27;;;;;;;13.70;5.38;;;;;;;;;;1022168;28;20031;-76
2023/04/19 01:54:58;;;;;;;7.32;5.00;;;;;;;;;;1023106;28;20175;-76
2023/04/19 01:55:28;;;;;;;15.27;6.57;;;;;;;;;;1021324;28;20043;-76
2023/04/19 01:55:59;;;;;;;8.27;6.05;;;;;;;;;;1022091;28;20027;-76
2023/04/19 01:56:29;;;;;;;6.63;5.10;;;;;;;;;;1022773;28;20046;-76
2023/04/19 01:57:00;;;;;;;16.52;5.97;;;;;;;;;;1029706;28;20029;-77
2023/04/19 01:57:30;;;;;;;9.07;6.15;;;;;;;;;;1023491;28;20023;-76
2023/04/19 01:58:01;;;;;;;10.15;5.00;;;;;;;;;;1022704;28;20166;-76
2023/04/19 01:58:31;;;;;;;10.63;5.25;;;;;;;;;;1024585;28;20151;-76
2023/04/19 01:59:03;;;;;;;15.50;7.07;;;;;;;;;;1024341;28;20038;-76
2023/04/19 01:59:33;;;;;;;9.82;5.55;;;;;;;;;;1025027;28;20027;-75
2023/04/19 02:00:04;;;;;;;9.30;5.85;;;;;;;;;;1023219;28;20114;-76
2023/04/19 02:00:34;;;;;;;13.35;6.40;;;;;;;;;;1019827;29;20094;-76
2023/04/19 02:01:05;;;;;;;10.43;5.65;;;;;;;;;;1020119;29;20027;-76
2023/04/19 02:01:35;;;;;;;10.30;7.28;;;;;;;;;;1020252;29;20467;-76
2023/04/19 02:02:07;;;;;;;14.65;7.30;;;;;;;;;;1024665;28;20034;-76
2023/04/19 02:02:37;;;;;;;15.13;8.27;;;;;;;;;;1029748;28;20061;-76
2023/04/19 02:03:08;;;;;;;7.35;4.95;;;;;;;;;;1023533;28;20426;-76
2023/04/19 02:03:39;;;;;;;13.90;7.07;;;;;;;;;;1021019;29;20027;-77
2023/04/19 02:04:09;;;;;;;17.63;6.07;;;;;;;;;;1019569;29;20038;-77
2023/04/19 02:04:39;;;;;;;19.50;7.30;;;;;;;;;;1019539;29;20023;-76
2023/04/19 02:05:10;;;;;;;17.13;7.00;;;;;;;;;;1023838;28;20027;-76
2023/04/19 02:05:41;;;;;;;19.40;7.28;;;;;;;;;;1028312;28;20506;-76
2023/04/19 02:06:12;;;;;;;15.55;5.90;;;;;;;;;;1029076;28;20121;-76
2023/04/19 02:06:42;;;;;;;17.35;6.63;;;;;;;;;;1027265;28;20038;-76
2023/04/19 02:07:13;;;;;;;30.08;10.77;;;;;;;;;;1022323;28;20469;-76
2023/04/19 02:07:43;;;;;;;7.80;5.07;;;;;;;;;;1022295;28;20499;-76
2023/04/19 02:08:14;;;;;;;15.10;7.35;;;;;;;;;;1023789;28;20122;-76
2023/04/19 02:08:44;;;;;;;14.15;6.22;;;;;;;;;;1022338;28;20146;-77
2023/04/19 02:09:15;;;;;;;12.55;6.30;;;;;;;;;;1021682;28;20032;-77
2023/04/19 02:09:47;;;;;;;14.30;7.25;;;;;;;;;;1018356;29;20035;-76
2023/04/19 02:10:17;;;;;;;16.52;5.75;;;;;;;;;;1017127;29;20035;-76
2023/04/19 02:10:48;;;;;;;56.40;9.07;;;;;;;;;;1019106;28;20030;-76
2023/04/19 02:11:18;;;;;;;6.57;4.40;;;;;;;;;;1024576;28;20031;-76
2023/04/19 02:11:49;;;;;;;4.72;3.28;;;;;;;;;;1026417;28;20034;-76
2023/04/19 02:12:19;;;;;;;11.70;6.03;;;;;;;;;;1025435;28;20396;-76
2023/04/19 02:12:50;;;;;;;10.95;7.50;;;;;;;;;;1027544;28;20058;-77
2023/04/19 02:13:21;;;;;;;6.85;5.13;;;;;;;;;;1027995;28;20398;-75
2023/04/19 02:13:51;;;;;;;9.07;5.60;;;;;;;;;;1025673;28;20027;-78
2023/04/19 02:14:25;;;;;;;13.73;4.75;;;;;;;;;;1022623;28;20484;-75
2023/04/19 02:14:56;;;;;;;15.35;7.05;;;;;;;;;;1020795;28;20529;-77
2023/04/19 02:15:27;;;;;;;4.57;2.58;;;;;;;;;;1024986;28;20159;-77
2023/04/19 02:15:57;;;;;;;6.60;4.88;;;;;;;;;;1024483;28;20087;-78
2023/04/19 02:16:28;;;;;;;4.25;3.80;;;;;;;;;;1027959;28;20082;-77
2023/04/19 02:16:59;;;;;;;13.00;5.53;;;;;;;;;;1023278;28;20473;-78
2023/04/19 02:17:30;;;;;;;12.30;6.47;;;;;;;;;;1023759;28;20031;-79
2023/04/19 02:18:00;;;;;;;14.18;5.03;;;;;;;;;;1018199;28;20427;-78
2023/04/19 02:18:31;;;;;;;9.13;6.13;;;;;;;;;;1019238;29;20039;-78
2023/04/19 02:19:02;;;;;;;10.63;4.93;;;;;;;;;;1018859;29;20035;-75
2023/04/19 02:19:33;;;;;;;13.55;7.18;;;;;;;;;;1019133;29;20036;-78
2023/04/19 02:20:04;;;;;;;9.07;5.35;;;;;;;;;;1022392;28;20043;-77
2023/04/19 02:20:35;;;;;;;13.43;5.00;;;;;;;;;;1023880;28;20068;-76
2023/04/19 02:21:06;;;;;;;15.90;6.28;;;;;;;;;;1023585;28;20577;-76
2023/04/19 02:21:36;;;;;;;9.25;6.47;;;;;;;;;;1023979;28;20119;-76
2023/04/19 02:22:07;;;;;;;9.48;5.53;;;;;;;;;;1026811;28;20565;-76
2023/04/19 02:22:40;;;;;;;28.52;8.05;;;;;;;;;;1027200;28;20031;-77
2023/04/19 02:23:11;;;;;;;16.13;7.18;;;;;;;;;;1028347;28;20122;-77
2023/04/19 02:23:41;;;;;;;15.68;4.93;;;;;;;;;;1026889;28;20085;-77
2023/04/19 02:24:12;;;;;;;9.55;5.90;;;;;;;;;;1021137;28;20107;-77
2023/04/19 02:24:42;;;;;;;10.50;5.50;;;;;;;;;;1021412;29;20030;-77
2023/04/19 02:25:13;;;;;;;13.13;5.50;;;;;;;;;;1017874;28;20101;-77
2023/04/19 02:25:43;;;;;;;4.85;3.65;;;;;;;;;;1019345;29;20118;-77
2023/04/19 02:26:14;;;;;;;12.07;5.00;;;;;;;;;;1022917;28;20531;-77
2023/04/19 02:26:44;;;;;;;8.13;5.55;;;;;;;;;;1021346;28;20023;-77
2023/04/19 02:27:15;;;;;;;12.23;5.78;;;;;;;;;;1022255;28;20783;-77
2023/04/19 02:27:46;;;;;;;14.70;6.15;;;;;;;;;;1025380;28;20031;-77
2023/04/19 02:28:16;;;;;;;12.57;6.45;;;;;;;;;;1019180;28;20023;-77
2023/04/19 02:28:46;;;;;;;15.05;4.45;;;;;;;;;;1025365;28;20507;-77
2023/04/19 02:29:17;;;;;;;7.80;4.72;;;;;;;;;;1023894;28;20030;-77
2023/04/19 02:29:47;;;;;;;13.02;6.22;;;;;;;;;;1023248;29;20035;-77
2023/04/19 02:30:18;;;;;;;7.65;4.78;;;;;;;;;;1020886;28;20027;-77
2023/04/19 02:30:48;;;;;;;15.05;6.60;;;;;;;;;;1022788;28;20037;-77
2023/04/19 02:31:19;;;;;;;19.85;6.57;;;;;;;;;;1024775;28;20041;-77
2023/04/19 02:31:50;;;;;;;6.50;5.40;;;;;;;;;;1024446;28;20750;-77
2023/04/19 02:32:20;;;;;;;14.55;6.45;;;;;;;;;;1024796;28;20046;-77
2023/04/19 02:32:51;;;;;;;12.77;4.88;;;;;;;;;;1021156;29;20055;-77
2023/04/19 02:33:22;;;;;;;16.65;6.90;;;;;;;;;;1019982;28;20024;-78
2023/04/19 02:33:53;;;;;;;9.13;4.90;;;;;;;;;;1023458;28;20031;-76
2023/04/19 02:34:24;;;;;;;17.80;8.43;;;;;;;;;;1020263;28;20456;-77
2023/04/19 02:34:54;;;;;;;13.63;6.95;;;;;;;;;;1019889;29;20118;-76
2023/04/19 02:35:25;;;;;;;13.20;6.30;;;;;;;;;;1022115;29;20106;-77
2023/04/19 02:35:55;;;;;;;17.38;10.23;;;;;;;;;;1018559;29;20545;-76
2023/04/19 02:36:26;;;;;;;11.43;6.10;;;;;;;;;;1023230;28;20019;-76
2023/04/19 02:36:56;;;;;;;11.50;5.88;;;;;;;;;;1026300;28;20474;-76
2023/04/19 02:37:27;;;;;;;11.70;5.95;;;;;;;;;;1024669;28;20023;-75
2023/04/19 02:37:59;;;;;;;13.18;4.68;;;;;;;;;;1022542;28;20032;-76
2023/04/19 02:38:29;;;;;;;11.00;6.70;;;;;;;;;;1022204;28;20030;-76
2023/04/19 02:39:00;;;;;;;11.90;5.93;;;;;;;;;;1019387;29;20031;-75
2023/04/19 02:39:30;;;;;;;23.63;6.40;;;;;;;;;;1017956;29;20028;-78
2023/04/19 02:40:01;;;;;;;7.10;5.97;;;;;;;;;;1021371;29;20075;-76
2023/04/19 02:40:31;;;;;;;14.63;4.60;;;;;;;;;;1019759;29;20111;-76
2023/04/19 02:41:03;;;;;;;15.25;7.22;;;;;;;;;;1024870;28;20511;-77
2023/04/19 02:41:33;;;;;;;14.50;5.90;;;;;;;;;;1022380;28;20118;-76
2023/04/19 02:42:04;;;;;;;6.55;5.75;;;;;;;;;;1021777;28;20403;-77
2023/04/19 02:42:35;;;;;;;15.32;5.97;;;;;;;;;;1022577;28;20109;-76
2023/04/19 02:43:05;;;;;;;7.95;4.05;;;;;;;;;;1020068;28;20118;-76
2023/04/19 02:43:36;;;;;;;12.65;5.53;;;;;;;;;;1023155;28;20298;-77
2023/04/19 02:44:06;;;;;;;12.77;6.60;;;;;;;;;;1021907;28;20468;-77
2023/04/19 02:44:37;;;;;;;7.57;6.28;;;;;;;;;;1022764;28;20023;-77
2023/04/19 02:45:07;;;;;;;9.48;5.10;;;;;;;;;;1021202;28;20039;-77
2023/04/19 02:45:38;;;;;;;20.20;7.63;;;;;;;;;;1020326;28;20426;-76
2023/04/19 02:46:09;;;;;;;14.18;6.38;;;;;;;;;;1018084;28;20024;-77
2023/04/19 02:46:39;;;;;;;10.20;5.63;;;;;;;;;;1024739;28;20026;-76
2023/04/19 02:47:10;;;;;;;8.57;5.85;;;;;;;;;;1024791;28;20519;-76
2023/04/19 02:47:40;;;;;;;9.25;5.40;;;;;;;;;;1025937;28;20042;-76
2023/04/19 02:48:11;;;;;;;12.57;4.03;;;;;;;;;;1020553;28;20105;-76
2023/04/19 02:48:41;;;;;;;10.13;4.10;;;;;;;;;;1017903;28;20483;-77
2023/04/19 02:49:12;;;;;;;5.13;4.03;;;;;;;;;;1017088;29;20034;-77
2023/04/19 02:49:43;;;;;;;7.50;4.60;;;;;;;;;;1015802;28;20095;-76
2023/04/19 02:50:15;;;;;;;10.00;5.25;;;;;;;;;;1017000;29;20430;-76
2023/04/19 02:50:46;;;;;;;10.32;5.13;;;;;;;;;;1012376;29;20727;-76
2023/04/19 02:51:16;;;;;;;11.73;4.60;;;;;;;;;;1012715;29;20115;-76
2023/04/19 02:51:49;;;;;;;6.10;4.10;;;;;;;;;;1016731;28;20031;-77
2023/04/19 02:52:19;;;;;;;11.50;6.13;;;;;;;;;;1020035;28;20042;-77
2023/04/19 02:52:50;;;;;;;9.77;3.42;;;;;;;;;;1021174;28;20030;-79
2023/04/19 02:53:21;;;;;;;6.88;4.97;;;;;;;;;;1017023;28;20066;-76
2023/04/19 02:53:51;;;;;;;5.95;4.28;;;;;;;;;;1017785;28;20116;-77
2023/04/19 02:54:22;;;;;;;10.98;5.47;;;;;;;;;;1015873;28;20528;-76
2023/04/19 02:54:54;;;;;;;11.70;7.07;;;;;;;;;;1019464;28;20034;-76
2023/04/19 02:55:25;;;;;;;2.67;2.25;;;;;;;;;;1021275;28;20026;-76
2023/04/19 02:55:55;;;;;;;16.70;7.32;;;;;;;;;;1023576;28;20031;-76
2023/04/19 02:56:26;;;;;;;9.00;5.22;;;;;;;;;;1022265;28;20026;-76
2023/04/19 02:56:56;;;;;;;19.55;4.43;;;;;;;;;;1020342;28;20490;-76
2023/04/19 02:57:27;;;;;;;12.63;4.65;;;;;;;;;;1016836;29;20134;-77
2023/04/19 02:57:58;;;;;;;15.43;4.38;;;;;;;;;;1017776;29;20463;-76
2023/04/19 02:58:28;;;;;;;5.20;3.97;;;;;;;;;;1017741;28;20094;-78
2023/04/19 02:58:59;;;;;;;12.73;4.40;;;;;;;;;;1015850;28;20095;-77
2023/04/19 02:59:30;;;;;;;10.65;4.15;;;;;;;;;;1018822;28;20050;-76
2023/04/19 03:00:00;;;;;;;15.57;5.85;;;;;;;;;;1020026;28;20410;-77
2023/04/19 03:00:31;;;;;;;6.93;4.57;;;;;;;;;;1019613;28;20419;-78
2023/04/19 03:01:02;;;;;;;12.95;4.93;;;;;;;;;;1020540;28;20019;-78
2023/04/19 03:01:33;;;;;;;4.60;2.92;;;;;;;;;;1016247;29;20142;-77
2023/04/19 03:02:03;;;;;;;4.00;3.05;;;;;;;;;;1017614;29;20069;-76
2023/04/19 03:02:34;;;;;;;6.40;3.75;;;;;;;;;;1018387;28;20491;-77